| time (UTC) | temp F | wind direction | speed knots | gust knots | rain 1hr in | rain 24hr in | rain mn in | humidity % | barometer mb |
| 20260502162008 | 83 | 86 | 3.5 | 12.2 | 0.00 | 0.00 | 0.00 | 29 | 1012.5 |
| 20260502161523 | 83 | 63 | 0.0 | 12.2 | 0.00 | 0.00 | 0.00 | 30 | 1012.4 |
| 20260502161053 | 83 | 79 | 0.0 | 7.8 | 0.00 | 0.00 | 0.00 | 29 | 1012.5 |
| 20260502160612 | 83 | 94 | 0.0 | 12.2 | 0.00 | 0.00 | 0.00 | 30 | 1012.4 |
| 20260502160129 | 82 | 91 | 1.7 | 12.2 | 0.00 | 0.00 | 0.00 | 30 | 1012.4 |
| 20260502152004 | 79 | 57 | 0.0 | 0.9 | 0.00 | 0.00 | 0.00 | 26 | 1012.1 |
| 20260502151654 | 78 | 57 | 0.0 | 0.0 | 0.00 | 0.00 | 0.00 | 26 | 1012.1 |
| 20260502151109 | 78 | 56 | 0.0 | 0.0 | 0.00 | 0.00 | 0.00 | 26 | 1012.1 |
| 20260502150510 | 78 | 53 | 0.0 | 0.0 | 0.00 | 0.00 | 0.00 | 25 | 1012.1 |
| 20260502130552 | 64 | 360 | 0.0 | 0.0 | 0.00 | 0.00 | 0.00 | 39 | 1010.7 |
| 20260502123504 | 63 | 360 | 0.0 | 0.0 | 0.00 | 0.00 | 0.00 | 39 | 1010.2 |
| 20260502123038 | 64 | 360 | 0.0 | 0.0 | 0.00 | 0.00 | 0.00 | 39 | 1010.1 |
| 20260502122632 | 64 | 360 | 0.0 | 0.0 | 0.00 | 0.00 | 0.00 | 38 | 1010.0 |
| 20260502122113 | 64 | 360 | 0.0 | 0.0 | 0.00 | 0.00 | 0.00 | 37 | 1010.0 |
| 20260502121611 | 64 | 360 | 0.0 | 0.0 | 0.00 | 0.00 | 0.00 | 37 | 1010.0 |
| 20260502121111 | 64 | 360 | 0.0 | 0.0 | 0.00 | 0.00 | 0.00 | 38 | 1009.9 |
| 20260502120532 | 64 | 360 | 0.0 | 0.0 | 0.00 | 0.00 | 0.00 | 37 | 1009.9 |
| 20260502120142 | 64 | 360 | 0.0 | 0.0 | 0.00 | 0.00 | 0.00 | 37 | 1009.9 |
| 20260502115508 | 64 | 360 | 0.0 | 0.0 | 0.00 | 0.00 | 0.00 | 37 | 1009.9 |
| 20260502115045 | 64 | 360 | 0.0 | 0.0 | 0.00 | 0.00 | 0.00 | 37 | 1009.9 |
| 20260502114505 | 65 | 360 | 0.0 | 0.0 | 0.00 | 0.00 | 0.00 | 36 | 1009.9 |
| 20260502114058 | 65 | 360 | 0.0 | 0.0 | 0.00 | 0.00 | 0.00 | 36 | 1009.8 |
| 20260502113554 | 65 | 360 | 0.0 | 0.0 | 0.00 | 0.00 | 0.00 | 36 | 1009.8 |
| 20260502113046 | 65 | 360 | 0.0 | 0.0 | 0.00 | 0.00 | 0.00 | 35 | 1009.8 |
| 20260502112627 | 66 | 360 | 0.0 | 0.0 | 0.00 | 0.00 | 0.00 | 35 | 1009.7 |
| 20260502112009 | 65 | 360 | 0.0 | 0.0 | 0.00 | 0.00 | 0.00 | 36 | 1009.7 |
| 20260502111603 | 66 | 360 | 0.0 | 0.0 | 0.00 | 0.00 | 0.00 | 36 | 1009.5 |
| 20260502111014 | 66 | 360 | 0.0 | 0.0 | 0.00 | 0.00 | 0.00 | 36 | 1009.5 |
| 20260502110551 | 66 | 360 | 0.0 | 0.0 | 0.00 | 0.00 | 0.00 | 35 | 1009.6 |
| 20260502110145 | 66 | 360 | 0.0 | 0.0 | 0.00 | 0.00 | 0.00 | 35 | 1009.5 |
| 20260502105619 | 66 | 360 | 0.0 | 0.0 | 0.00 | 0.00 | 0.00 | 36 | 1009.5 |
| 20260502105036 | 66 | 360 | 0.0 | 0.0 | 0.00 | 0.00 | 0.00 | 36 | 1009.6 |
| 20260502104626 | 66 | 360 | 0.0 | 0.0 | 0.00 | 0.00 | 0.00 | 36 | 1009.5 |
| 20260502104052 | 67 | 360 | 0.0 | 0.0 | 0.00 | 0.00 | 0.00 | 36 | 1009.6 |
| 20260502103518 | 66 | 360 | 0.0 | 0.0 | 0.00 | 0.00 | 0.00 | 36 | 1009.8 |
| 20260502103116 | 66 | 360 | 0.0 | 0.0 | 0.00 | 0.00 | 0.00 | 35 | 1009.7 |
| 20260502102514 | 66 | 360 | 0.0 | 0.0 | 0.00 | 0.00 | 0.00 | 35 | 1009.7 |
| 20260502102108 | 66 | 360 | 0.0 | 0.0 | 0.00 | 0.00 | 0.00 | 35 | 1009.7 |
| 20260502101602 | 66 | 360 | 0.0 | 0.0 | 0.00 | 0.00 | 0.00 | 35 | 1009.6 |
| 20260502101004 | 67 | 58 | 0.0 | 0.0 | 0.00 | 0.00 | 0.00 | 35 | 1009.5 |
| 20260502100536 | 67 | 57 | 0.0 | 0.0 | 0.00 | 0.00 | 0.00 | 34 | 1009.5 |
| 20260502091524 | 69 | 56 | 0.0 | 0.0 | 0.00 | 0.00 | 0.00 | 29 | 1009.1 |
| 20260502091059 | 69 | 56 | 0.0 | 0.0 | 0.00 | 0.00 | 0.00 | 28 | 1009.0 |
| 20260502090557 | 70 | 56 | 0.0 | 0.0 | 0.00 | 0.00 | 0.00 | 28 | 1009.0 |
| 20260502090111 | 70 | 56 | 0.0 | 0.0 | 0.00 | 0.00 | 0.00 | 29 | 1009.0 |
| 20260502080107 | 74 | 256 | 0.0 | 0.0 | 0.00 | 0.00 | 0.00 | 23 | 1008.5 |
| 20260502071114 | 74 | 256 | 0.0 | 0.0 | 0.00 | 0.00 | 0.00 | 24 | 1008.0 |
| 20260502070528 | 73 | 256 | 0.0 | 0.0 | 0.00 | 0.00 | 0.00 | 25 | 1008.0 |
| 20260502070126 | 73 | 256 | 0.0 | 0.0 | 0.00 | 0.00 | 0.00 | 24 | 1007.9 |
| 20260502065521 | 74 | 256 | 0.0 | 0.0 | 0.00 | 0.00 | 0.00 | 24 | 1008.0 |
| 20260502065114 | 74 | 256 | 0.0 | 0.0 | 0.00 | 0.00 | 0.00 | 24 | 1008.0 |
| 20260502064609 | 74 | 256 | 0.0 | 0.0 | 0.00 | 0.00 | 0.00 | 24 | 1008.2 |
| 20260502064009 | 75 | 256 | 0.0 | 0.0 | 0.00 | 0.00 | 0.00 | 24 | 1008.2 |
| 20260502063700 | 75 | 256 | 0.0 | 0.0 | 0.00 | 0.00 | 0.00 | 24 | 1008.2 |
| 20260502063004 | 75 | 256 | 0.0 | 0.0 | 0.00 | 0.00 | 0.00 | 23 | 1008.1 |
| 20260502062538 | 75 | 256 | 0.0 | 0.0 | 0.00 | 0.00 | 0.00 | 24 | 1008.1 |
| 20260502062119 | 75 | 256 | 0.0 | 0.0 | 0.00 | 0.00 | 0.00 | 25 | 1008.1 |
| 20260502061614 | 74 | 256 | 0.0 | 0.0 | 0.00 | 0.00 | 0.00 | 26 | 1008.1 |
| 20260502061047 | 74 | 256 | 0.0 | 0.0 | 0.00 | 0.00 | 0.00 | 26 | 1008.0 |
| 20260502060546 | 74 | 256 | 0.0 | 0.0 | 0.00 | 0.00 | 0.00 | 26 | 1008.1 |
| 20260502060142 | 74 | 256 | 0.0 | 0.0 | 0.00 | 0.00 | 0.00 | 27 | 1008.0 |
| 20260502055518 | 74 | 256 | 0.0 | 0.0 | 0.00 | 0.00 | 0.00 | 27 | 1007.9 |
| 20260502055113 | 73 | 256 | 0.0 | 0.0 | 0.00 | 0.00 | 0.00 | 27 | 1007.8 |
| 20260502054531 | 73 | 256 | 0.0 | 0.0 | 0.00 | 0.00 | 0.00 | 28 | 1007.9 |
| 20260502054014 | 74 | 256 | 0.0 | 0.0 | 0.00 | 0.00 | 0.00 | 27 | 1007.8 |
| 20260502053549 | 74 | 256 | 0.0 | 0.0 | 0.00 | 0.00 | 0.00 | 27 | 1007.7 |
| 20260502053122 | 74 | 256 | 0.0 | 0.0 | 0.00 | 0.00 | 0.00 | 28 | 1007.7 |
| 20260502052503 | 74 | 256 | 0.0 | 0.0 | 0.00 | 0.00 | 0.00 | 27 | 1007.8 |
| 20260502052035 | 75 | 256 | 0.0 | 0.0 | 0.00 | 0.00 | 0.00 | 27 | 1007.8 |
| 20260502051551 | 75 | 256 | 0.0 | 0.0 | 0.00 | 0.00 | 0.00 | 26 | 1007.7 |
| 20260502051010 | 75 | 256 | 0.0 | 0.0 | 0.00 | 0.00 | 0.00 | 26 | 1007.7 |
| 20260502050504 | 76 | 256 | 0.0 | 0.0 | 0.00 | 0.00 | 0.00 | 25 | 1007.6 |
| 20260502050155 | 76 | 256 | 0.0 | 0.0 | 0.00 | 0.00 | 0.00 | 25 | 1007.5 |
| 20260502045634 | 76 | 256 | 0.0 | 0.0 | 0.00 | 0.00 | 0.00 | 25 | 1007.3 |
| 20260502045050 | 76 | 256 | 0.0 | 0.0 | 0.00 | 0.00 | 0.00 | 25 | 1007.2 |
| 20260502044606 | 77 | 256 | 0.0 | 0.0 | 0.00 | 0.00 | 0.00 | 25 | 1007.2 |
| 20260502044007 | 77 | 256 | 0.0 | 0.0 | 0.00 | 0.00 | 0.00 | 24 | 1007.2 |
| 20260502043502 | 78 | 256 | 0.0 | 0.0 | 0.00 | 0.00 | 0.00 | 23 | 1007.2 |
| 20260502043059 | 78 | 256 | 0.0 | 0.0 | 0.00 | 0.00 | 0.00 | 24 | 1007.2 |
| 20260502042630 | 78 | 256 | 0.0 | 0.0 | 0.00 | 0.00 | 0.00 | 25 | 1007.2 |
| 20260502042014 | 78 | 256 | 0.0 | 0.0 | 0.00 | 0.00 | 0.00 | 24 | 1007.1 |
| 20260502041508 | 79 | 256 | 0.0 | 0.0 | 0.00 | 0.00 | 0.00 | 24 | 1007.3 |
| 20260502041003 | 79 | 256 | 0.0 | 0.0 | 0.00 | 0.00 | 0.00 | 24 | 1007.2 |
| 20260502040554 | 79 | 256 | 0.0 | 0.0 | 0.00 | 0.00 | 0.00 | 22 | 1007.3 |
| 20260502040004 | 79 | 256 | 0.0 | 0.0 | 0.00 | 0.00 | 0.00 | 22 | 1007.1 |
| 20260502035556 | 80 | 256 | 0.0 | 0.0 | 0.00 | 0.00 | 0.00 | 20 | 1007.1 |
| 20260502035016 | 80 | 256 | 0.0 | 0.0 | 0.00 | 0.00 | 0.00 | 19 | 1007.2 |
| 20260502034547 | 81 | 256 | 0.0 | 0.0 | 0.00 | 0.00 | 0.00 | 19 | 1007.1 |
| 20260502034044 | 81 | 256 | 0.0 | 0.0 | 0.00 | 0.00 | 0.00 | 19 | 1007.0 |
| 20260502033600 | 81 | 256 | 0.0 | 0.0 | 0.00 | 0.00 | 0.00 | 19 | 1006.9 |
| 20260502033154 | 82 | 256 | 0.0 | 0.0 | 0.00 | 0.00 | 0.00 | 19 | 1006.8 |
| 20260502032646 | 82 | 256 | 0.0 | 0.0 | 0.00 | 0.00 | 0.00 | 19 | 1006.8 |
| 20260502032011 | 82 | 256 | 0.0 | 0.0 | 0.00 | 0.00 | 0.00 | 18 | 1006.7 |
| 20260502031548 | 83 | 256 | 0.0 | 0.0 | 0.00 | 0.00 | 0.00 | 18 | 1006.6 |
| 20260502031004 | 83 | 256 | 0.0 | 0.0 | 0.00 | 0.00 | 0.00 | 18 | 1006.5 |
| 20260502030609 | 83 | 256 | 0.0 | 0.0 | 0.00 | 0.00 | 0.00 | 18 | 1006.7 |
| 20260502030041 | 83 | 256 | 0.0 | 0.0 | 0.00 | 0.00 | 0.00 | 18 | 1006.4 |
| 20260502025509 | 83 | 256 | 0.0 | 0.0 | 0.00 | 0.00 | 0.00 | 18 | 1006.5 |
| 20260502025041 | 84 | 256 | 0.0 | 0.0 | 0.00 | 0.00 | 0.00 | 18 | 1006.4 |
| 20260502024558 | 84 | 256 | 0.0 | 0.0 | 0.00 | 0.00 | 0.00 | 18 | 1006.4 |
| 20260502024053 | 84 | 256 | 0.0 | 0.0 | 0.00 | 0.00 | 0.00 | 18 | 1006.3 |
| 20260502023514 | 85 | 256 | 0.0 | 0.0 | 0.00 | 0.00 | 0.00 | 18 | 1006.1 |
| 20260502023104 | 85 | 256 | 0.0 | 0.0 | 0.00 | 0.00 | 0.00 | 17 | 1006.2 |
| 20260502022507 | 85 | 256 | 0.0 | 0.0 | 0.00 | 0.00 | 0.00 | 17 | 1006.2 |
| 20260502022100 | 86 | 256 | 0.0 | 0.0 | 0.00 | 0.00 | 0.00 | 17 | 1006.0 |
| 20260502021533 | 86 | 256 | 0.0 | 0.0 | 0.00 | 0.00 | 0.00 | 18 | 1006.1 |
| 20260502021111 | 86 | 256 | 0.0 | 0.0 | 0.00 | 0.00 | 0.00 | 18 | 1006.1 |
| 20260502020510 | 86 | 256 | 0.0 | 0.0 | 0.00 | 0.00 | 0.00 | 18 | 1006.0 |
| 20260502020114 | 87 | 256 | 0.0 | 0.0 | 0.00 | 0.00 | 0.00 | 17 | 1005.9 |
| 20260502015610 | 87 | 256 | 0.0 | 0.0 | 0.00 | 0.00 | 0.00 | 18 | 1005.8 |
| 20260502015106 | 87 | 256 | 0.0 | 0.0 | 0.00 | 0.00 | 0.00 | 17 | 1005.9 |
| 20260502014557 | 87 | 256 | 0.0 | 0.0 | 0.00 | 0.00 | 0.00 | 17 | 1005.9 |
| 20260502014130 | 88 | 256 | 0.0 | 0.0 | 0.00 | 0.00 | 0.00 | 17 | 1005.8 |
| 20260502013513 | 88 | 256 | 0.0 | 0.0 | 0.00 | 0.00 | 0.00 | 17 | 1005.9 |
| 20260502013045 | 88 | 256 | 0.0 | 0.0 | 0.00 | 0.00 | 0.00 | 17 | 1005.8 |
| 20260502012543 | 88 | 256 | 0.0 | 0.0 | 0.00 | 0.00 | 0.00 | 17 | 1005.8 |
| 20260502012117 | 89 | 256 | 0.0 | 0.0 | 0.00 | 0.00 | 0.00 | 17 | 1005.8 |
| 20260502011556 | 89 | 257 | 0.0 | 0.9 | 0.00 | 0.00 | 0.00 | 17 | 1005.9 |
| 20260502011053 | 89 | 259 | 0.0 | 0.9 | 0.00 | 0.00 | 0.00 | 17 | 1006.0 |
| 20260502010606 | 89 | 259 | 0.0 | 0.0 | 0.00 | 0.00 | 0.00 | 18 | 1006.0 |
| 20260502010016 | 89 | 258 | 0.0 | 0.0 | 0.00 | 0.00 | 0.00 | 17 | 1006.0 |
| 20260502005545 | 89 | 258 | 0.0 | 0.0 | 0.00 | 0.00 | 0.00 | 17 | 1005.9 |
| 20260502005039 | 89 | 258 | 0.0 | 2.6 | 0.00 | 0.00 | 0.00 | 17 | 1005.9 |
| 20260502004557 | 90 | 305 | 0.0 | 3.5 | 0.00 | 0.00 | 0.00 | 17 | 1006.0 |
| 20260502004049 | 89 | 224 | 0.0 | 3.5 | 0.00 | 0.00 | 0.00 | 17 | 1006.1 |
| 20260502003605 | 89 | 233 | 0.0 | 0.0 | 0.00 | 0.00 | 0.00 | 17 | 1006.0 |
| 20260502003141 | 89 | 234 | 0.0 | 0.0 | 0.00 | 0.00 | 0.00 | 18 | 1006.0 |
| 20260502002557 | 90 | 234 | 0.0 | 0.0 | 0.00 | 0.00 | 0.00 | 18 | 1006.0 |
| 20260502002113 | 90 | 233 | 0.0 | 6.1 | 0.00 | 0.00 | 0.00 | 18 | 1006.0 |
| 20260502001506 | 89 | 233 | 0.0 | 6.1 | 0.00 | 0.00 | 0.00 | 18 | 1006.2 |
| 20260502001121 | 89 | 264 | 0.0 | 2.6 | 0.00 | 0.00 | 0.00 | 20 | 1006.2 |
| 20260502000533 | 89 | 264 | 0.0 | 6.1 | 0.00 | 0.00 | 0.00 | 19 | 1006.1 |
| 20260502000113 | 90 | 266 | 0.9 | 6.1 | 0.00 | 0.00 | 0.00 | 19 | 1006.2 |
| 20260501235557 | 90 | 285 | 0.0 | 5.2 | 0.00 | 0.00 | 0.00 | 19 | 1006.0 |
| 20260501235053 | 89 | 304 | 0.0 | 5.2 | 0.00 | 0.00 | 0.00 | 19 | 1006.2 |
| 20260501234610 | 90 | 307 | 1.7 | 4.3 | 0.00 | 0.00 | 0.00 | 18 | 1006.3 |
| 20260501234011 | 90 | 320 | 0.0 | 5.2 | 0.00 | 0.00 | 0.00 | 19 | 1006.2 |
| 20260501233607 | 90 | 321 | 1.7 | 5.2 | 0.00 | 0.00 | 0.00 | 22 | 1006.2 |
| 20260501233003 | 90 | 245 | 0.0 | 6.1 | 0.00 | 0.00 | 0.00 | 19 | 1006.2 |
| 20260501232612 | 90 | 240 | 0.9 | 6.1 | 0.00 | 0.00 | 0.00 | 19 | 1006.2 |
| 20260501232010 | 90 | 224 | 0.0 | 5.2 | 0.00 | 0.00 | 0.00 | 20 | 1006.4 |
| 20260501231539 | 88 | 214 | 0.0 | 6.1 | 0.00 | 0.00 | 0.00 | 20 | 1006.5 |
| 20260501231116 | 89 | 252 | 1.7 | 6.1 | 0.00 | 0.00 | 0.00 | 20 | 1006.4 |
| 20260501230512 | 89 | 290 | 0.9 | 7.0 | 0.00 | 0.00 | 0.00 | 20 | 1006.4 |
| 20260501230105 | 89 | 278 | 2.6 | 7.0 | 0.00 | 0.00 | 0.00 | 20 | 1006.5 |
| 20260501225549 | 90 | 258 | 0.9 | 7.0 | 0.00 | 0.00 | 0.00 | 20 | 1006.6 |
| 20260501225008 | 90 | 230 | 0.0 | 3.5 | 0.00 | 0.00 | 0.00 | 20 | 1006.6 |
| 20260501224655 | 89 | 243 | 0.0 | 3.5 | 0.00 | 0.00 | 0.00 | 20 | 1006.6 |
| 20260501224111 | 89 | 249 | 0.0 | 7.8 | 0.00 | 0.00 | 0.00 | 20 | 1006.8 |
| 20260501223548 | 89 | 243 | 1.7 | 7.8 | 0.00 | 0.00 | 0.00 | 20 | 1006.8 |
| 20260501223059 | 88 | 234 | 0.9 | 7.8 | 0.00 | 0.00 | 0.00 | 21 | 1006.8 |
| 20260501222555 | 88 | 214 | 2.6 | 7.8 | 0.00 | 0.00 | 0.00 | 20 | 1006.9 |
| 20260501222047 | 89 | 229 | 1.7 | 7.8 | 0.00 | 0.00 | 0.00 | 17 | 1007.0 |
| 20260501221505 | 89 | 264 | 1.7 | 9.6 | 0.00 | 0.00 | 0.00 | 21 | 1007.2 |
| 20260501221144 | 89 | 239 | 0.9 | 9.6 | 0.00 | 0.00 | 0.00 | 21 | 1007.2 |
| 20260501220508 | 89 | 235 | 1.7 | 7.8 | 0.00 | 0.00 | 0.00 | 20 | 1007.2 |
| 20260501220014 | 89 | 283 | 0.9 | 8.7 | 0.00 | 0.00 | 0.00 | 22 | 1007.3 |
| 20260501215606 | 88 | 203 | 2.6 | 9.6 | 0.00 | 0.00 | 0.00 | 22 | 1007.4 |
| 20260501215005 | 88 | 267 | 0.9 | 8.7 | 0.00 | 0.00 | 0.00 | 23 | 1007.5 |
| 20260501214535 | 88 | 283 | 2.6 | 8.7 | 0.00 | 0.00 | 0.00 | 22 | 1007.5 |
| 20260501214110 | 87 | 243 | 1.7 | 8.7 | 0.00 | 0.00 | 0.00 | 23 | 1007.6 |
| 20260501213605 | 88 | 234 | 2.6 | 9.6 | 0.00 | 0.00 | 0.00 | 23 | 1007.7 |
| 20260501213119 | 88 | 307 | 2.6 | 11.3 | 0.00 | 0.00 | 0.00 | 23 | 1007.8 |
| 20260501212557 | 88 | 282 | 2.6 | 10.4 | 0.00 | 0.00 | 0.00 | 23 | 1007.7 |
| 20260501212115 | 88 | 260 | 1.7 | 7.0 | 0.00 | 0.00 | 0.00 | 24 | 1007.7 |
| 20260501211512 | 89 | 333 | 0.9 | 8.7 | 0.00 | 0.00 | 0.00 | 23 | 1007.8 |
| 20260501211103 | 87 | 289 | 0.0 | 8.7 | 0.00 | 0.00 | 0.00 | 24 | 1007.9 |
| 20260501210525 | 88 | 309 | 2.6 | 9.6 | 0.00 | 0.00 | 0.00 | 24 | 1008.0 |
| 20260501210012 | 87 | 224 | 2.6 | 8.7 | 0.00 | 0.00 | 0.00 | 24 | 1008.0 |
| 20260501205537 | 87 | 274 | 4.3 | 8.7 | 0.00 | 0.00 | 0.00 | 22 | 1008.2 |
| 20260501205020 | 88 | 219 | 0.0 | 5.2 | 0.00 | 0.00 | 0.00 | 23 | 1008.2 |
| 20260501204511 | 87 | 289 | 0.0 | 6.1 | 0.00 | 0.00 | 0.00 | 23 | 1008.3 |
| 20260501204045 | 88 | 276 | 0.9 | 6.1 | 0.00 | 0.00 | 0.00 | 23 | 1008.3 |
| 20260501203505 | 88 | 249 | 0.0 | 8.7 | 0.00 | 0.00 | 0.00 | 25 | 1008.4 |
| 20260501203102 | 86 | 219 | 3.5 | 8.7 | 0.00 | 0.00 | 0.00 | 23 | 1008.5 |
| 20260501202628 | 87 | 257 | 0.0 | 6.1 | 0.00 | 0.00 | 0.00 | 24 | 1008.3 |
| 20260501202048 | 88 | 282 | 0.0 | 5.2 | 0.00 | 0.00 | 0.00 | 23 | 1008.4 |
| 20260501201605 | 87 | 320 | 0.9 | 5.2 | 0.00 | 0.00 | 0.00 | 24 | 1008.5 |
| 20260501201139 | 87 | 198 | 0.0 | 8.7 | 0.00 | 0.00 | 0.00 | 25 | 1008.5 |
| 20260501200503 | 86 | 250 | 2.6 | 8.7 | 0.00 | 0.00 | 0.00 | 24 | 1008.5 |
| 20260501200009 | 86 | 219 | 0.0 | 6.1 | 0.00 | 0.00 | 0.00 | 25 | 1008.5 |
| 20260501195505 | 88 | 257 | 0.9 | 5.2 | 0.00 | 0.00 | 0.00 | 25 | 1008.7 |
| 20260501195022 | 85 | 212 | 0.0 | 2.6 | 0.00 | 0.00 | 0.00 | 28 | 1008.7 |
| 20260501194515 | 85 | 212 | 0.0 | 6.1 | 0.00 | 0.00 | 0.00 | 25 | 1008.8 |
| 20260501194042 | 85 | 212 | 1.7 | 6.1 | 0.00 | 0.00 | 0.00 | 26 | 1008.9 |
| 20260501193539 | 85 | 266 | 0.0 | 4.3 | 0.00 | 0.00 | 0.00 | 26 | 1009.0 |
| 20260501193036 | 87 | 267 | 0.9 | 4.3 | 0.00 | 0.00 | 0.00 | 26 | 1009.0 |
| 20260501192630 | 85 | 254 | 0.0 | 0.0 | 0.00 | 0.00 | 0.00 | 27 | 1008.9 |
| 20260501192012 | 85 | 254 | 0.0 | 0.0 | 0.00 | 0.00 | 0.00 | 27 | 1009.0 |
| 20260501191605 | 84 | 254 | 0.0 | 0.0 | 0.00 | 0.00 | 0.00 | 31 | 1009.1 |
| 20260501191104 | 84 | 254 | 0.0 | 0.9 | 0.00 | 0.00 | 0.00 | 29 | 1009.4 |
| 20260501190558 | 85 | 255 | 0.0 | 0.9 | 0.00 | 0.00 | 0.00 | 26 | 1009.4 |
| 20260501185509 | 84 | 226 | 0.9 | 5.2 | 0.00 | 0.00 | 0.00 | 28 | 1009.6 |
| 20260501185026 | 84 | 217 | 0.0 | 5.2 | 0.00 | 0.00 | 0.00 | 29 | 1009.8 |
| 20260501184508 | 84 | 200 | 0.9 | 5.2 | 0.00 | 0.00 | 0.00 | 28 | 1009.8 |
| 20260501184019 | 83 | 215 | 0.9 | 5.2 | 0.00 | 0.00 | 0.00 | 28 | 1010.0 |
| 20260501183550 | 82 | 248 | 0.9 | 5.2 | 0.00 | 0.00 | 0.00 | 29 | 1009.9 |
| 20260501183047 | 81 | 249 | 0.0 | 5.2 | 0.00 | 0.00 | 0.00 | 29 | 1009.8 |
| 20260501182538 | 82 | 25 | 0.9 | 4.3 | 0.00 | 0.00 | 0.00 | 29 | 1010.1 |
| 20260501182054 | 83 | 44 | 0.9 | 4.3 | 0.00 | 0.00 | 0.00 | 28 | 1010.1 |
| 20260501181610 | 83 | 46 | 0.0 | 4.3 | 0.00 | 0.00 | 0.00 | 29 | 1010.2 |
| 20260501181047 | 83 | 12 | 0.0 | 4.3 | 0.00 | 0.00 | 0.00 | 33 | 1010.2 |
| 20260501180600 | 83 | 143 | 0.9 | 4.3 | 0.00 | 0.00 | 0.00 | 31 | 1010.2 |
| 20260501180117 | 82 | 126 | 0.0 | 1.7 | 0.00 | 0.00 | 0.00 | 31 | 1010.3 |
| 20260501175603 | 80 | 252 | 0.0 | 4.3 | 0.00 | 0.00 | 0.00 | 32 | 1010.3 |
| 20260501175038 | 81 | 257 | 0.0 | 4.3 | 0.00 | 0.00 | 0.00 | 31 | 1010.2 |
| 20260501174518 | 80 | 145 | 0.0 | 6.1 | 0.00 | 0.00 | 0.00 | 33 | 1010.5 |
| 20260501174128 | 80 | 231 | 0.0 | 6.1 | 0.00 | 0.00 | 0.00 | 30 | 1010.7 |
| 20260501173510 | 80 | 268 | 0.0 | 4.3 | 0.00 | 0.00 | 0.00 | 32 | 1010.7 |
| 20260501173006 | 80 | 271 | 0.0 | 5.2 | 0.00 | 0.00 | 0.00 | 34 | 1010.7 |
| 20260501172539 | 80 | 271 | 1.7 | 5.2 | 0.00 | 0.00 | 0.00 | 30 | 1010.6 |
| 20260501172128 | 80 | 274 | 0.9 | 3.5 | 0.00 | 0.00 | 0.00 | 31 | 1010.6 |
| 20260501171520 | 79 | 267 | 0.0 | 5.2 | 0.00 | 0.00 | 0.00 | 35 | 1010.7 |
| 20260501171011 | 79 | 258 | 0.0 | 2.6 | 0.00 | 0.00 | 0.00 | 35 | 1010.7 |
| 20260501170624 | 77 | 276 | 0.0 | 3.5 | 0.00 | 0.00 | 0.00 | 35 | 1010.8 |
| 20260501170101 | 78 | 276 | 0.0 | 6.1 | 0.00 | 0.00 | 0.00 | 33 | 1010.8 |
| 20260501165508 | 78 | 202 | 0.0 | 6.1 | 0.00 | 0.00 | 0.00 | 34 | 1010.8 |
| 20260501165039 | 78 | 279 | 0.0 | 2.6 | 0.00 | 0.00 | 0.00 | 34 | 1010.8 |
| 20260501164533 | 77 | 279 | 0.0 | 3.5 | 0.00 | 0.00 | 0.00 | 35 | 1010.7 |
| 20260501164012 | 78 | 280 | 0.9 | 3.5 | 0.00 | 0.00 | 0.00 | 34 | 1010.7 |
| 20260501163545 | 78 | 281 | 0.0 | 4.3 | 0.00 | 0.00 | 0.00 | 35 | 1010.7 |
| 20260501163019 | 77 | 274 | 0.0 | 4.3 | 0.00 | 0.00 | 0.00 | 36 | 1010.7 |
| 20260501162510 | 76 | 177 | 0.9 | 5.2 | 0.00 | 0.00 | 0.00 | 36 | 1010.8 |